Time;durP1;ratioP1;P1;durP2;ratioP2;P2;SDS_P1;SDS_P2;PMS_P1;PMS_P2;Temp;Humidity;BMP_temperature;BMP_pressure;BME280_temperature;BME280_humidity;BME280_pressure;Samples;Min_cycle;Max_cycle;Signal;HPM_P1;HPM_P2
2022/08/22 00:00:25;;;;;;;6.4;5.8;;;;;;;13.36;92.3252;95222.78;;;;
2022/08/22 00:01:33;;;;;;;6.4;5.8;;;;;;;13.36;92.3252;95222.78;;;;
2022/08/22 00:02:43;;;;;;;6.4;5.8;;;;;;;13.36;92.3252;95222.78;;;;
2022/08/22 00:04:00;;;;;;;6.4;5.8;;;;;;;13.36;92.3252;95222.78;;;;
2022/08/22 00:05:10;;;;;;;6.4;5.8;;;;;;;13.36;92.3252;95222.78;;;;
2022/08/22 00:06:26;;;;;;;6.8;5.9;;;;;;;13.29;92.54785;95219.29;;;;
2022/08/22 00:07:37;;;;;;;6.8;5.9;;;;;;;13.29;92.54785;95219.29;;;;
2022/08/22 00:08:47;;;;;;;6.8;5.9;;;;;;;13.29;92.54785;95219.29;;;;
2022/08/22 00:10:17;;;;;;;6.8;5.9;;;;;;;13.29;92.54785;95219.29;;;;
2022/08/22 00:11:25;;;;;;;6.8;5.9;;;;;;;13.29;92.54785;95219.29;;;;
2022/08/22 00:12:35;;;;;;;6.8;5.9;;;;;;;13.29;92.54785;95219.29;;;;
2022/08/22 00:13:44;;;;;;;6.8;5.9;;;;;;;13.29;92.54785;95219.29;;;;
2022/08/22 00:14:58;;;;;;;6.8;5.9;;;;;;;13.29;92.54785;95219.29;;;;
2022/08/22 00:16:06;;;;;;;6.8;5.9;;;;;;;13.29;92.54785;95219.29;;;;
2022/08/22 00:17:16;;;;;;;6.55;5.85;;;;;;;13.18;92.64453;95219.17;;;;
2022/08/22 00:18:34;;;;;;;6.55;5.85;;;;;;;13.18;92.64453;95219.17;;;;
2022/08/22 00:19:41;;;;;;;6.55;5.85;;;;;;;13.18;92.64453;95219.17;;;;
2022/08/22 00:20:48;;;;;;;6.55;5.85;;;;;;;13.18;92.64453;95219.17;;;;
2022/08/22 00:22:02;;;;;;;6.55;5.85;;;;;;;13.18;92.64453;95219.17;;;;
2022/08/22 00:23:11;;;;;;;6.55;5.85;;;;;;;13.18;92.64453;95219.17;;;;
2022/08/22 00:24:17;;;;;;;6.55;5.85;;;;;;;13.18;92.64453;95219.17;;;;
2022/08/22 00:25:25;;;;;;;6.55;5.85;;;;;;;13.18;92.64453;95219.17;;;;
2022/08/22 00:26:38;;;;;;;6.55;5.85;;;;;;;13.18;92.64453;95219.17;;;;
2022/08/22 00:27:46;;;;;;;7.5;6.35;;;;;;;13.13;92.83984;95224.36;;;;
2022/08/22 00:28:53;;;;;;;7.5;6.35;;;;;;;13.13;92.83984;95224.36;;;;
2022/08/22 00:30:01;;;;;;;7.5;6.35;;;;;;;13.13;92.83984;95224.36;;;;
2022/08/22 00:31:12;;;;;;;7.5;6.35;;;;;;;13.13;92.83984;95224.36;;;;
2022/08/22 00:32:21;;;;;;;7.5;6.35;;;;;;;13.13;92.83984;95224.36;;;;
2022/08/22 00:33:28;;;;;;;7.5;6.35;;;;;;;13.13;92.83984;95224.36;;;;
2022/08/22 00:34:38;;;;;;;7.5;6.35;;;;;;;13.13;92.83984;95224.36;;;;
2022/08/22 00:35:45;;;;;;;7.5;6.35;;;;;;;13.13;92.83984;95224.36;;;;
2022/08/22 00:36:51;;;;;;;7.5;6.35;;;;;;;13.13;92.83984;95224.36;;;;
2022/08/22 00:37:58;;;;;;;7.5;6.35;;;;;;;13.13;92.83984;95224.36;;;;
2022/08/22 00:39:04;;;;;;;6.799999;6.05;;;;;;;13.03;92.88184;95220.26;;;;
2022/08/22 00:40:12;;;;;;;6.799999;6.05;;;;;;;13.03;92.88184;95220.26;;;;
2022/08/22 00:41:28;;;;;;;6.799999;6.05;;;;;;;13.03;92.88184;95220.26;;;;
2022/08/22 00:42:46;;;;;;;6.799999;6.05;;;;;;;13.03;92.88184;95220.26;;;;
2022/08/22 00:44:36;;;;;;;6.799999;6.05;;;;;;;13.03;92.88184;95220.26;;;;
2022/08/22 00:46:57;;;;;;;6.799999;6.05;;;;;;;13.03;92.88184;95220.26;;;;
2022/08/22 00:48:12;;;;;;;6.799999;6.05;;;;;;;13.03;92.88184;95220.26;;;;
2022/08/22 00:49:26;;;;;;;8.1;6;;;;;;;13;93.13281;95215.37;;;;
2022/08/22 00:50:43;;;;;;;8.1;6;;;;;;;13;93.13281;95215.37;;;;
2022/08/22 00:52:01;;;;;;;8.1;6;;;;;;;13;93.13281;95215.37;;;;
2022/08/22 00:53:23;;;;;;;8.1;6;;;;;;;13;93.13281;95215.37;;;;
2022/08/22 00:54:39;;;;;;;8.1;6;;;;;;;13;93.13281;95215.37;;;;
2022/08/22 00:55:58;;;;;;;8.1;6;;;;;;;13;93.13281;95215.37;;;;
2022/08/22 00:57:14;;;;;;;8.1;6;;;;;;;13;93.13281;95215.37;;;;
2022/08/22 00:58:29;;;;;;;8.1;6;;;;;;;13;93.13281;95215.37;;;;
2022/08/22 00:59:50;;;;;;;8.699999;6.100001;;;;;;;12.97;93.23242;95214.51;;;;
2022/08/22 01:01:05;;;;;;;8.699999;6.100001;;;;;;;12.97;93.23242;95214.51;;;;
2022/08/22 01:02:11;;;;;;;8.699999;6.100001;;;;;;;12.97;93.23242;95214.51;;;;
2022/08/22 01:03:28;;;;;;;8.699999;6.100001;;;;;;;12.97;93.23242;95214.51;;;;
2022/08/22 01:05:00;;;;;;;8.699999;6.100001;;;;;;;12.97;93.23242;95214.51;;;;
2022/08/22 01:06:24;;;;;;;8.699999;6.100001;;;;;;;12.97;93.23242;95214.51;;;;
2022/08/22 01:07:36;;;;;;;8.699999;6.100001;;;;;;;12.97;93.23242;95214.51;;;;
2022/08/22 01:08:55;;;;;;;8.699999;6.100001;;;;;;;12.97;93.23242;95214.51;;;;
2022/08/22 01:10:13;;;;;;;8.699999;6.100001;;;;;;;12.97;93.23242;95214.51;;;;
2022/08/22 01:11:28;;;;;;;6.599999;6.05;;;;;;;12.99;93.38867;95218.54;;;;
2022/08/22 01:12:47;;;;;;;6.599999;6.05;;;;;;;12.99;93.38867;95218.54;;;;
2022/08/22 01:14:02;;;;;;;6.599999;6.05;;;;;;;12.99;93.38867;95218.54;;;;
2022/08/22 01:15:23;;;;;;;6.599999;6.05;;;;;;;12.99;93.38867;95218.54;;;;
2022/08/22 01:16:27;;;;;;;6.599999;6.05;;;;;;;12.99;93.38867;95218.54;;;;
2022/08/22 01:17:54;;;;;;;6.599999;6.05;;;;;;;12.99;93.38867;95218.54;;;;
2022/08/22 01:19:28;;;;;;;6.599999;6.05;;;;;;;12.99;93.38867;95218.54;;;;
2022/08/22 01:25:16;;;;;;;6.650001;6.05;;;;;;;12.97;93.42578;95221.14;;;;
2022/08/22 01:26:49;;;;;;;6.650001;6.05;;;;;;;12.97;93.42578;95221.14;;;;
2022/08/22 01:28:52;;;;;;;6.650001;6.05;;;;;;;12.97;93.42578;95221.14;;;;
2022/08/22 01:30:20;;;;;;;6.650001;6.05;;;;;;;12.97;93.42578;95221.14;;;;
2022/08/22 01:31:46;;;;;;;6.95;5.95;;;;;;;13;93.61816;95216.16;;;;
2022/08/22 01:37:12;;;;;;;6.95;5.95;;;;;;;13;93.61816;95216.16;;;;
2022/08/22 01:38:32;;;;;;;6.95;5.95;;;;;;;13;93.61816;95216.16;;;;
2022/08/22 01:40:02;;;;;;;6.95;5.95;;;;;;;13;93.61816;95216.16;;;;
2022/08/22 01:41:38;;;;;;;6.95;5.95;;;;;;;13;93.61816;95216.16;;;;
2022/08/22 01:42:59;;;;;;;7.449999;6.700001;;;;;;;13.03;93.55957;95215.77;;;;
2022/08/22 01:44:07;;;;;;;7.449999;6.700001;;;;;;;13.03;93.55957;95215.77;;;;
2022/08/22 01:45:30;;;;;;;7.449999;6.700001;;;;;;;13.03;93.55957;95215.77;;;;
2022/08/22 01:46:52;;;;;;;7.449999;6.700001;;;;;;;13.03;93.55957;95215.77;;;;
2022/08/22 01:48:00;;;;;;;7.449999;6.700001;;;;;;;13.03;93.55957;95215.77;;;;
2022/08/22 01:49:09;;;;;;;7.449999;6.700001;;;;;;;13.03;93.55957;95215.77;;;;
2022/08/22 01:50:19;;;;;;;7.449999;6.700001;;;;;;;13.03;93.55957;95215.77;;;;
2022/08/22 01:51:28;;;;;;;7.449999;6.700001;;;;;;;13.03;93.55957;95215.77;;;;
2022/08/22 01:52:39;;;;;;;7.449999;6.700001;;;;;;;13.03;93.55957;95215.77;;;;
2022/08/22 01:53:44;;;;;;;6.600001;6;;;;;;;13.05;93.61816;95214.21;;;;
2022/08/22 01:54:55;;;;;;;6.600001;6;;;;;;;13.05;93.61816;95214.21;;;;
2022/08/22 01:56:01;;;;;;;6.600001;6;;;;;;;13.05;93.61816;95214.21;;;;
2022/08/22 01:57:06;;;;;;;6.600001;6;;;;;;;13.05;93.61816;95214.21;;;;
2022/08/22 01:58:08;;;;;;;6.600001;6;;;;;;;13.05;93.61816;95214.21;;;;
2022/08/22 01:59:16;;;;;;;6.600001;6;;;;;;;13.05;93.61816;95214.21;;;;
2022/08/22 02:00:29;;;;;;;6.600001;6;;;;;;;13.05;93.61816;95214.21;;;;
2022/08/22 02:01:46;;;;;;;6.600001;6;;;;;;;13.05;93.61816;95214.21;;;;
2022/08/22 02:02:56;;;;;;;6.600001;6;;;;;;;13.05;93.61816;95214.21;;;;
2022/08/22 02:04:06;;;;;;;7.45;6.75;;;;;;;12.92;93.5791;95204.57;;;;
2022/08/22 02:05:13;;;;;;;7.45;6.75;;;;;;;12.92;93.5791;95204.57;;;;
2022/08/22 02:06:24;;;;;;;7.45;6.75;;;;;;;12.92;93.5791;95204.57;;;;
2022/08/22 02:07:35;;;;;;;7.45;6.75;;;;;;;12.92;93.5791;95204.57;;;;
2022/08/22 02:08:47;;;;;;;7.45;6.75;;;;;;;12.92;93.5791;95204.57;;;;
2022/08/22 02:09:58;;;;;;;7.45;6.75;;;;;;;12.92;93.5791;95204.57;;;;
2022/08/22 02:11:09;;;;;;;7.45;6.75;;;;;;;12.92;93.5791;95204.57;;;;
2022/08/22 02:12:30;;;;;;;7.45;6.75;;;;;;;12.92;93.5791;95204.57;;;;
2022/08/22 02:13:40;;;;;;;7.45;6.75;;;;;;;12.92;93.5791;95204.57;;;;
2022/08/22 02:14:53;;;;;;;7.5;6.750001;;;;;;;12.85;93.79102;95213.56;;;;
2022/08/22 02:16:16;;;;;;;7.5;6.750001;;;;;;;12.85;93.79102;95213.56;;;;
2022/08/22 02:17:30;;;;;;;7.5;6.750001;;;;;;;12.85;93.79102;95213.56;;;;
2022/08/22 02:18:34;;;;;;;7.5;6.750001;;;;;;;12.85;93.79102;95213.56;;;;
2022/08/22 02:19:49;;;;;;;7.5;6.750001;;;;;;;12.85;93.79102;95213.56;;;;
2022/08/22 02:21:00;;;;;;;7.5;6.750001;;;;;;;12.85;93.79102;95213.56;;;;
2022/08/22 02:22:08;;;;;;;7.5;6.750001;;;;;;;12.85;93.79102;95213.56;;;;
2022/08/22 02:23:25;;;;;;;7.5;6.750001;;;;;;;12.85;93.79102;95213.56;;;;
2022/08/22 02:24:34;;;;;;;7.5;6.750001;;;;;;;12.85;93.79102;95213.56;;;;
2022/08/22 02:25:46;;;;;;;7.15;6.45;;;;;;;12.71;93.85547;95214.37;;;;
2022/08/22 02:26:51;;;;;;;7.15;6.45;;;;;;;12.71;93.85547;95214.37;;;;
2022/08/22 02:28:04;;;;;;;7.15;6.45;;;;;;;12.71;93.85547;95214.37;;;;
2022/08/22 02:29:11;;;;;;;7.15;6.45;;;;;;;12.71;93.85547;95214.37;;;;
2022/08/22 02:30:17;;;;;;;7.15;6.45;;;;;;;12.71;93.85547;95214.37;;;;
2022/08/22 02:31:22;;;;;;;7.15;6.45;;;;;;;12.71;93.85547;95214.37;;;;
2022/08/22 02:32:33;;;;;;;7.15;6.45;;;;;;;12.71;93.85547;95214.37;;;;
2022/08/22 02:33:48;;;;;;;7.15;6.45;;;;;;;12.71;93.85547;95214.37;;;;
2022/08/22 02:34:54;;;;;;;7.15;6.45;;;;;;;12.71;93.85547;95214.37;;;;
2022/08/22 02:36:04;;;;;;;8.050001;7.299999;;;;;;;12.68;94.11914;95203.43;;;;
2022/08/22 02:37:15;;;;;;;8.050001;7.299999;;;;;;;12.68;94.11914;95203.43;;;;
2022/08/22 02:38:21;;;;;;;8.050001;7.299999;;;;;;;12.68;94.11914;95203.43;;;;
2022/08/22 02:39:29;;;;;;;8.050001;7.299999;;;;;;;12.68;94.11914;95203.43;;;;
2022/08/22 02:40:35;;;;;;;8.050001;7.299999;;;;;;;12.68;94.11914;95203.43;;;;
2022/08/22 02:41:45;;;;;;;8.050001;7.299999;;;;;;;12.68;94.11914;95203.43;;;;
2022/08/22 02:42:52;;;;;;;8.050001;7.299999;;;;;;;12.68;94.11914;95203.43;;;;
2022/08/22 02:44:00;;;;;;;8.050001;7.299999;;;;;;;12.68;94.11914;95203.43;;;;
2022/08/22 02:45:12;;;;;;;8.050001;7.299999;;;;;;;12.68;94.11914;95203.43;;;;
2022/08/22 02:46:23;;;;;;;8.050001;7.299999;;;;;;;12.68;94.11914;95203.43;;;;
2022/08/22 02:47:31;;;;;;;7.299999;6.6;;;;;;;12.59;94.16504;95202.52;;;;
2022/08/22 02:48:38;;;;;;;7.299999;6.6;;;;;;;12.59;94.16504;95202.52;;;;
2022/08/22 02:49:44;;;;;;;7.299999;6.6;;;;;;;12.59;94.16504;95202.52;;;;
2022/08/22 02:50:54;;;;;;;7.299999;6.6;;;;;;;12.59;94.16504;95202.52;;;;
2022/08/22 02:52:01;;;;;;;7.299999;6.6;;;;;;;12.59;94.16504;95202.52;;;;
2022/08/22 02:53:11;;;;;;;7.299999;6.6;;;;;;;12.59;94.16504;95202.52;;;;
2022/08/22 02:54:18;;;;;;;7.299999;6.6;;;;;;;12.59;94.16504;95202.52;;;;
2022/08/22 02:55:25;;;;;;;7.299999;6.6;;;;;;;12.59;94.16504;95202.52;;;;
2022/08/22 02:56:35;;;;;;;7.299999;6.6;;;;;;;12.59;94.16504;95202.52;;;;
2022/08/22 02:57:42;;;;;;;8.35;7.45;;;;;;;12.57;94.38672;95211.63;;;;
2022/08/22 02:58:50;;;;;;;8.35;7.45;;;;;;;12.57;94.38672;95211.63;;;;
2022/08/22 02:59:54;;;;;;;8.35;7.45;;;;;;;12.57;94.38672;95211.63;;;;
2022/08/22 03:01:08;;;;;;;8.35;7.45;;;;;;;12.57;94.38672;95211.63;;;;
2022/08/22 03:02:23;;;;;;;8.35;7.45;;;;;;;12.57;94.38672;95211.63;;;;
2022/08/22 03:03:33;;;;;;;8.35;7.45;;;;;;;12.57;94.38672;95211.63;;;;
2022/08/22 03:04:38;;;;;;;8.35;7.45;;;;;;;12.57;94.38672;95211.63;;;;
2022/08/22 03:05:51;;;;;;;8.35;7.45;;;;;;;12.57;94.38672;95211.63;;;;
2022/08/22 03:06:59;;;;;;;8.35;7.45;;;;;;;12.57;94.38672;95211.63;;;;
2022/08/22 03:08:11;;;;;;;9;7.5;;;;;;;12.55;94.52246;95215.83;;;;
2022/08/22 03:09:21;;;;;;;9;7.5;;;;;;;12.55;94.52246;95215.83;;;;
2022/08/22 03:10:28;;;;;;;9;7.5;;;;;;;12.55;94.52246;95215.83;;;;
2022/08/22 03:11:36;;;;;;;9;7.5;;;;;;;12.55;94.52246;95215.83;;;;
2022/08/22 03:12:42;;;;;;;9;7.5;;;;;;;12.55;94.52246;95215.83;;;;
2022/08/22 03:13:51;;;;;;;9;7.5;;;;;;;12.55;94.52246;95215.83;;;;
2022/08/22 03:15:02;;;;;;;9;7.5;;;;;;;12.55;94.52246;95215.83;;;;
2022/08/22 03:16:10;;;;;;;9;7.5;;;;;;;12.55;94.52246;95215.83;;;;
2022/08/22 03:17:21;;;;;;;9;7.5;;;;;;;12.55;94.52246;95215.83;;;;
2022/08/22 03:18:28;;;;;;;8.700001;7.799999;;;;;;;12.6;94.66992;95221.37;;;;
2022/08/22 03:19:41;;;;;;;8.700001;7.799999;;;;;;;12.6;94.66992;95221.37;;;;
2022/08/22 03:20:50;;;;;;;8.700001;7.799999;;;;;;;12.6;94.66992;95221.37;;;;
2022/08/22 03:21:55;;;;;;;8.700001;7.799999;;;;;;;12.6;94.66992;95221.37;;;;
2022/08/22 03:22:59;;;;;;;8.700001;7.799999;;;;;;;12.6;94.66992;95221.37;;;;
2022/08/22 03:24:08;;;;;;;8.700001;7.799999;;;;;;;12.6;94.66992;95221.37;;;;
2022/08/22 03:25:16;;;;;;;8.700001;7.799999;;;;;;;12.6;94.66992;95221.37;;;;
2022/08/22 03:26:25;;;;;;;8.700001;7.799999;;;;;;;12.6;94.66992;95221.37;;;;
2022/08/22 03:27:29;;;;;;;8.700001;7.799999;;;;;;;12.6;94.66992;95221.37;;;;
2022/08/22 03:28:38;;;;;;;8.700001;7.799999;;;;;;;12.6;94.66992;95221.37;;;;
2022/08/22 03:29:45;;;;;;;8.1;7.299999;;;;;;;12.52;94.55762;95222.09;;;;
2022/08/22 03:30:52;;;;;;;8.1;7.299999;;;;;;;12.52;94.55762;95222.09;;;;
2022/08/22 03:31:59;;;;;;;8.1;7.299999;;;;;;;12.52;94.55762;95222.09;;;;
2022/08/22 03:33:07;;;;;;;8.1;7.299999;;;;;;;12.52;94.55762;95222.09;;;;
2022/08/22 03:34:15;;;;;;;8.1;7.299999;;;;;;;12.52;94.55762;95222.09;;;;
2022/08/22 03:35:20;;;;;;;8.1;7.299999;;;;;;;12.52;94.55762;95222.09;;;;
2022/08/22 03:36:24;;;;;;;8.1;7.299999;;;;;;;12.52;94.55762;95222.09;;;;
2022/08/22 03:37:28;;;;;;;8.1;7.299999;;;;;;;12.52;94.55762;95222.09;;;;
2022/08/22 03:38:39;;;;;;;8.1;7.299999;;;;;;;12.52;94.55762;95222.09;;;;
2022/08/22 03:39:53;;;;;;;8.499999;7.7;;;;;;;12.48;94.73145;95211.66;;;;
2022/08/22 03:40:59;;;;;;;8.499999;7.7;;;;;;;12.48;94.73145;95211.66;;;;
2022/08/22 03:42:17;;;;;;;8.499999;7.7;;;;;;;12.48;94.73145;95211.66;;;;
2022/08/22 03:43:34;;;;;;;8.499999;7.7;;;;;;;12.48;94.73145;95211.66;;;;
2022/08/22 03:44:55;;;;;;;8.499999;7.7;;;;;;;12.48;94.73145;95211.66;;;;
2022/08/22 03:46:14;;;;;;;8.499999;7.7;;;;;;;12.48;94.73145;95211.66;;;;
2022/08/22 03:47:39;;;;;;;8.499999;7.7;;;;;;;12.48;94.73145;95211.66;;;;
2022/08/22 03:49:16;;;;;;;8.499999;7.7;;;;;;;12.48;94.73145;95211.66;;;;
2022/08/22 03:50:50;;;;;;;8.399999;7.599999;;;;;;;12.37;94.71875;95221.68;;;;
2022/08/22 03:52:11;;;;;;;8.399999;7.599999;;;;;;;12.37;94.71875;95221.68;;;;
2022/08/22 03:53:33;;;;;;;8.399999;7.599999;;;;;;;12.37;94.71875;95221.68;;;;
2022/08/22 03:54:51;;;;;;;8.399999;7.599999;;;;;;;12.37;94.71875;95221.68;;;;
2022/08/22 03:56:12;;;;;;;8.399999;7.599999;;;;;;;12.37;94.71875;95221.68;;;;
2022/08/22 03:57:39;;;;;;;8.399999;7.599999;;;;;;;12.37;94.71875;95221.68;;;;
2022/08/22 03:58:54;;;;;;;8.399999;7.599999;;;;;;;12.37;94.71875;95221.68;;;;
2022/08/22 04:00:32;;;;;;;8.399999;7.599999;;;;;;;12.37;94.71875;95221.68;;;;
2022/08/22 04:01:52;;;;;;;9.300001;8.199999;;;;;;;12.33;94.91406;95235.52;;;;
2022/08/22 04:03:08;;;;;;;9.300001;8.199999;;;;;;;12.33;94.91406;95235.52;;;;
2022/08/22 04:04:30;;;;;;;9.300001;8.199999;;;;;;;12.33;94.91406;95235.52;;;;
2022/08/22 04:05:53;;;;;;;9.300001;8.199999;;;;;;;12.33;94.91406;95235.52;;;;
2022/08/22 04:07:18;;;;;;;9.300001;8.199999;;;;;;;12.33;94.91406;95235.52;;;;
2022/08/22 04:08:41;;;;;;;9.300001;8.199999;;;;;;;12.33;94.91406;95235.52;;;;
2022/08/22 04:10:02;;;;;;;9.300001;8.199999;;;;;;;12.33;94.91406;95235.52;;;;
2022/08/22 04:11:22;;;;;;;9.300001;8.199999;;;;;;;12.33;94.91406;95235.52;;;;
2022/08/22 04:12:51;;;;;;;8.749999;7.85;;;;;;;12.27;94.96484;95246.2;;;;
2022/08/22 04:14:07;;;;;;;8.749999;7.85;;;;;;;12.27;94.96484;95246.2;;;;
2022/08/22 04:15:24;;;;;;;8.749999;7.85;;;;;;;12.27;94.96484;95246.2;;;;
2022/08/22 04:16:47;;;;;;;8.749999;7.85;;;;;;;12.27;94.96484;95246.2;;;;
2022/08/22 04:18:03;;;;;;;8.749999;7.85;;;;;;;12.27;94.96484;95246.2;;;;
2022/08/22 04:19:42;;;;;;;8.749999;7.85;;;;;;;12.27;94.96484;95246.2;;;;
2022/08/22 04:25:01;;;;;;;8.799999;7.900001;;;;;;;12.27;95.16797;95251.5;;;;
2022/08/22 04:26:06;;;;;;;8.799999;7.900001;;;;;;;12.27;95.16797;95251.5;;;;
2022/08/22 04:27:13;;;;;;;8.799999;7.900001;;;;;;;12.27;95.16797;95251.5;;;;
2022/08/22 04:28:21;;;;;;;8.799999;7.900001;;;;;;;12.27;95.16797;95251.5;;;;
2022/08/22 04:29:27;;;;;;;8.799999;7.900001;;;;;;;12.27;95.16797;95251.5;;;;
2022/08/22 04:30:36;;;;;;;8.799999;7.900001;;;;;;;12.27;95.16797;95251.5;;;;
2022/08/22 04:31:44;;;;;;;8.799999;7.900001;;;;;;;12.27;95.16797;95251.5;;;;
2022/08/22 04:32:52;;;;;;;8.799999;7.900001;;;;;;;12.27;95.16797;95251.5;;;;
2022/08/22 04:34:00;;;;;;;9.150001;8.25;;;;;;;12.28;95.14063;95248.63;;;;
2022/08/22 04:35:08;;;;;;;9.150001;8.25;;;;;;;12.28;95.14063;95248.63;;;;
2022/08/22 04:36:16;;;;;;;9.150001;8.25;;;;;;;12.28;95.14063;95248.63;;;;
2022/08/22 04:37:22;;;;;;;9.150001;8.25;;;;;;;12.28;95.14063;95248.63;;;;
2022/08/22 04:38:32;;;;;;;9.150001;8.25;;;;;;;12.28;95.14063;95248.63;;;;
2022/08/22 04:39:38;;;;;;;9.150001;8.25;;;;;;;12.28;95.14063;95248.63;;;;
2022/08/22 04:40:46;;;;;;;9.150001;8.25;;;;;;;12.28;95.14063;95248.63;;;;
2022/08/22 04:41:51;;;;;;;9.150001;8.25;;;;;;;12.28;95.14063;95248.63;;;;
2022/08/22 04:43:00;;;;;;;9.150001;8.25;;;;;;;12.28;95.14063;95248.63;;;;
2022/08/22 04:44:07;;;;;;;9.999998;8.000002;;;;;;;12.33;95.28125;95245.2;;;;
2022/08/22 04:45:14;;;;;;;9.999998;8.000002;;;;;;;12.33;95.28125;95245.2;;;;
2022/08/22 04:46:20;;;;;;;9.999998;8.000002;;;;;;;12.33;95.28125;95245.2;;;;
2022/08/22 04:47:25;;;;;;;9.999998;8.000002;;;;;;;12.33;95.28125;95245.2;;;;
2022/08/22 04:48:30;;;;;;;9.999998;8.000002;;;;;;;12.33;95.28125;95245.2;;;;
2022/08/22 04:49:36;;;;;;;9.999998;8.000002;;;;;;;12.33;95.28125;95245.2;;;;
2022/08/22 04:50:45;;;;;;;9.999998;8.000002;;;;;;;12.33;95.28125;95245.2;;;;
2022/08/22 04:51:50;;;;;;;9.999998;8.000002;;;;;;;12.33;95.28125;95245.2;;;;
2022/08/22 04:52:58;;;;;;;9.999998;8.000002;;;;;;;12.33;95.28125;95245.2;;;;
2022/08/22 04:54:12;;;;;;;9.999998;8.000002;;;;;;;12.33;95.28125;95245.2;;;;
2022/08/22 04:55:26;;;;;;;8.899999;8.050001;;;;;;;12.34;95.25977;95239.36;;;;
2022/08/22 04:56:35;;;;;;;8.899999;8.050001;;;;;;;12.34;95.25977;95239.36;;;;
2022/08/22 04:57:48;;;;;;;8.899999;8.050001;;;;;;;12.34;95.25977;95239.36;;;;
2022/08/22 04:58:59;;;;;;;8.899999;8.050001;;;;;;;12.34;95.25977;95239.36;;;;
2022/08/22 05:00:06;;;;;;;8.899999;8.050001;;;;;;;12.34;95.25977;95239.36;;;;
2022/08/22 05:01:10;;;;;;;8.899999;8.050001;;;;;;;12.34;95.25977;95239.36;;;;
2022/08/22 05:02:15;;;;;;;8.899999;8.050001;;;;;;;12.34;95.25977;95239.36;;;;
2022/08/22 05:03:21;;;;;;;8.899999;8.050001;;;;;;;12.34;95.25977;95239.36;;;;
2022/08/22 05:04:25;;;;;;;8.899999;8.050001;;;;;;;12.34;95.25977;95239.36;;;;
2022/08/22 05:05:31;;;;;;;9.199999;8.200002;;;;;;;12.46;95.52246;95243.3;;;;
2022/08/22 05:06:37;;;;;;;9.199999;8.200002;;;;;;;12.46;95.52246;95243.3;;;;
2022/08/22 05:07:42;;;;;;;9.199999;8.200002;;;;;;;12.46;95.52246;95243.3;;;;
2022/08/22 05:08:48;;;;;;;9.199999;8.200002;;;;;;;12.46;95.52246;95243.3;;;;
2022/08/22 05:09:49;;;;;;;9.199999;8.200002;;;;;;;12.46;95.52246;95243.3;;;;
2022/08/22 05:10:57;;;;;;;9.199999;8.200002;;;;;;;12.46;95.52246;95243.3;;;;
2022/08/22 05:12:01;;;;;;;9.199999;8.200002;;;;;;;12.46;95.52246;95243.3;;;;
2022/08/22 05:13:04;;;;;;;9.199999;8.200002;;;;;;;12.46;95.52246;95243.3;;;;
2022/08/22 05:14:11;;;;;;;9.199999;8.200002;;;;;;;12.46;95.52246;95243.3;;;;
2022/08/22 05:15:15;;;;;;;9.199999;8.200002;;;;;;;12.46;95.52246;95243.3;;;;
2022/08/22 05:16:20;;;;;;;10.2;7.5;;;;;;;12.64;95.55078;95254.78;;;;
2022/08/22 05:17:26;;;;;;;10.2;7.5;;;;;;;12.64;95.55078;95254.78;;;;
2022/08/22 05:18:29;;;;;;;10.2;7.5;;;;;;;12.64;95.55078;95254.78;;;;
2022/08/22 05:19:37;;;;;;;10.2;7.5;;;;;;;12.64;95.55078;95254.78;;;;
2022/08/22 05:20:43;;;;;;;10.2;7.5;;;;;;;12.64;95.55078;95254.78;;;;
2022/08/22 05:21:48;;;;;;;10.2;7.5;;;;;;;12.64;95.55078;95254.78;;;;
2022/08/22 05:22:50;;;;;;;10.2;7.5;;;;;;;12.64;95.55078;95254.78;;;;
2022/08/22 05:23:55;;;;;;;10.2;7.5;;;;;;;12.64;95.55078;95254.78;;;;
2022/08/22 05:25:00;;;;;;;10.2;7.5;;;;;;;12.64;95.55078;95254.78;;;;
2022/08/22 05:26:04;;;;;;;10.2;7.5;;;;;;;12.64;95.55078;95254.78;;;;
2022/08/22 05:27:07;;;;;;;9.199999;8.25;;;;;;;12.92;95.57715;95258.57;;;;
2022/08/22 05:28:12;;;;;;;9.199999;8.25;;;;;;;12.92;95.57715;95258.57;;;;
2022/08/22 05:29:19;;;;;;;9.199999;8.25;;;;;;;12.92;95.57715;95258.57;;;;
2022/08/22 05:30:24;;;;;;;9.199999;8.25;;;;;;;12.92;95.57715;95258.57;;;;
2022/08/22 05:31:28;;;;;;;9.199999;8.25;;;;;;;12.92;95.57715;95258.57;;;;
2022/08/22 05:32:33;;;;;;;9.199999;8.25;;;;;;;12.92;95.57715;95258.57;;;;
2022/08/22 05:33:46;;;;;;;9.199999;8.25;;;;;;;12.92;95.57715;95258.57;;;;
2022/08/22 05:34:49;;;;;;;9.199999;8.25;;;;;;;12.92;95.57715;95258.57;;;;
2022/08/22 05:35:56;;;;;;;9.199999;8.25;;;;;;;12.92;95.57715;95258.57;;;;
2022/08/22 05:37:01;;;;;;;9.199999;8.25;;;;;;;12.92;95.57715;95258.57;;;;
2022/08/22 05:38:07;;;;;;;9.650002;8.6;;;;;;;13.22;95.39648;95269.05;;;;
2022/08/22 05:39:13;;;;;;;9.650002;8.6;;;;;;;13.22;95.39648;95269.05;;;;
2022/08/22 05:40:17;;;;;;;9.650002;8.6;;;;;;;13.22;95.39648;95269.05;;;;
2022/08/22 05:41:22;;;;;;;9.650002;8.6;;;;;;;13.22;95.39648;95269.05;;;;
2022/08/22 05:42:28;;;;;;;9.650002;8.6;;;;;;;13.22;95.39648;95269.05;;;;
2022/08/22 05:43:33;;;;;;;9.650002;8.6;;;;;;;13.22;95.39648;95269.05;;;;
2022/08/22 05:44:38;;;;;;;9.650002;8.6;;;;;;;13.22;95.39648;95269.05;;;;
2022/08/22 05:45:39;;;;;;;9.650002;8.6;;;;;;;13.22;95.39648;95269.05;;;;
2022/08/22 05:46:45;;;;;;;9.650002;8.6;;;;;;;13.22;95.39648;95269.05;;;;
2022/08/22 05:47:54;;;;;;;9.650002;8.6;;;;;;;13.22;95.39648;95269.05;;;;
2022/08/22 05:49:02;;;;;;;9.650002;8.6;;;;;;;13.22;95.39648;95269.05;;;;
2022/08/22 05:50:10;;;;;;;9.650002;8.6;;;;;;;13.22;95.39648;95269.05;;;;
2022/08/22 05:51:15;;;;;;;9.650002;8.6;;;;;;;13.22;95.39648;95269.05;;;;
2022/08/22 05:52:19;;;;;;;9.650002;8.6;;;;;;;13.22;95.39648;95269.05;;;;
2022/08/22 05:53:35;;;;;;;9.650002;8.6;;;;;;;13.22;95.39648;95269.05;;;;
2022/08/22 05:54:40;;;;;;;9.650002;8.6;;;;;;;13.22;95.39648;95269.05;;;;
2022/08/22 05:55:50;;;;;;;9.650002;8.6;;;;;;;13.22;95.39648;95269.05;;;;
2022/08/22 05:57:02;;;;;;;9.650002;8.6;;;;;;;13.22;95.39648;95269.05;;;;
2022/08/22 05:58:10;;;;;;;9.650002;8.6;;;;;;;13.22;95.39648;95269.05;;;;
2022/08/22 05:59:26;;;;;;;8;7.2;;;;;;;14.19;94.88281;95275.9;;;;
2022/08/22 06:00:31;;;;;;;8;7.2;;;;;;;14.19;94.88281;95275.9;;;;
2022/08/22 06:01:38;;;;;;;8;7.2;;;;;;;14.19;94.88281;95275.9;;;;
2022/08/22 06:02:52;;;;;;;8;7.2;;;;;;;14.19;94.88281;95275.9;;;;
2022/08/22 06:04:03;;;;;;;8;7.2;;;;;;;14.19;94.88281;95275.9;;;;
2022/08/22 06:05:10;;;;;;;8;7.2;;;;;;;14.19;94.88281;95275.9;;;;
2022/08/22 06:06:11;;;;;;;8;7.2;;;;;;;14.19;94.88281;95275.9;;;;
2022/08/22 06:07:16;;;;;;;8;7.2;;;;;;;14.19;94.88281;95275.9;;;;
2022/08/22 06:08:22;;;;;;;8;7.2;;;;;;;14.19;94.88281;95275.9;;;;
2022/08/22 06:09:26;;;;;;;8.849999;7.65;;;;;;;14.78;94.74219;95267.56;;;;
2022/08/22 06:10:31;;;;;;;8.849999;7.65;;;;;;;14.78;94.74219;95267.56;;;;
2022/08/22 06:11:41;;;;;;;8.849999;7.65;;;;;;;14.78;94.74219;95267.56;;;;
2022/08/22 06:12:49;;;;;;;8.849999;7.65;;;;;;;14.78;94.74219;95267.56;;;;
2022/08/22 06:13:58;;;;;;;8.849999;7.65;;;;;;;14.78;94.74219;95267.56;;;;
2022/08/22 06:15:07;;;;;;;8.849999;7.65;;;;;;;14.78;94.74219;95267.56;;;;
2022/08/22 06:16:15;;;;;;;8.849999;7.65;;;;;;;14.78;94.74219;95267.56;;;;
2022/08/22 06:17:20;;;;;;;8.849999;7.65;;;;;;;14.78;94.74219;95267.56;;;;
2022/08/22 06:18:26;;;;;;;8.849999;7.65;;;;;;;14.78;94.74219;95267.56;;;;
2022/08/22 06:19:30;;;;;;;8.849999;7.65;;;;;;;14.78;94.74219;95267.56;;;;
2022/08/22 06:20:33;;;;;;;8.349999;7;;;;;;;15.44;94.38281;95280.19;;;;
2022/08/22 06:21:40;;;;;;;8.349999;7;;;;;;;15.44;94.38281;95280.19;;;;
2022/08/22 06:22:43;;;;;;;8.349999;7;;;;;;;15.44;94.38281;95280.19;;;;
2022/08/22 06:23:50;;;;;;;8.349999;7;;;;;;;15.44;94.38281;95280.19;;;;
2022/08/22 06:24:55;;;;;;;8.349999;7;;;;;;;15.44;94.38281;95280.19;;;;
2022/08/22 06:26:10;;;;;;;8.349999;7;;;;;;;15.44;94.38281;95280.19;;;;
2022/08/22 06:27:12;;;;;;;8.349999;7;;;;;;;15.44;94.38281;95280.19;;;;
2022/08/22 06:28:16;;;;;;;8.349999;7;;;;;;;15.44;94.38281;95280.19;;;;
2022/08/22 06:29:20;;;;;;;8.349999;7;;;;;;;15.44;94.38281;95280.19;;;;
2022/08/22 06:30:31;;;;;;;8.349999;7;;;;;;;15.44;94.38281;95280.19;;;;
2022/08/22 06:31:34;;;;;;;9.050001;8.15;;;;;;;16.35;93.87207;95273;;;;
2022/08/22 06:32:40;;;;;;;9.050001;8.15;;;;;;;16.35;93.87207;95273;;;;
2022/08/22 06:33:46;;;;;;;9.050001;8.15;;;;;;;16.35;93.87207;95273;;;;
2022/08/22 06:34:55;;;;;;;9.050001;8.15;;;;;;;16.35;93.87207;95273;;;;
2022/08/22 06:36:33;;;;;;;9.050001;8.15;;;;;;;16.35;93.87207;95273;;;;
2022/08/22 06:37:37;;;;;;;9.050001;8.15;;;;;;;16.35;93.87207;95273;;;;
2022/08/22 06:38:40;;;;;;;9.050001;8.15;;;;;;;16.35;93.87207;95273;;;;
2022/08/22 06:39:54;;;;;;;9.050001;8.15;;;;;;;16.35;93.87207;95273;;;;
2022/08/22 06:40:57;;;;;;;9.050001;8.15;;;;;;;16.35;93.87207;95273;;;;